Terminal Aerodrome Forecast
Issued by NWS Omaha/Valley, NE

Home | Current Version | Previous Version | Text Only | Print | Product List | Glossary Off
Versions: 1 2 3 4 5 6 7 8 9 10 11 12 13 14 15 16 17 18

000
FTUS43 KOAX 220535
TAFOFK
TAF
KOFK 220535Z 2206/2306 21011KT P6SM SKC
     FM221500 27009KT P6SM SCT250
     FM221800 34011G22KT P6SM SCT250
     FM230000 33006KT P6SM BKN250=

USA.gov is the U.S. government's official web portal to all federal, state and local government web resources and services.